createdAt,value
2018-05-18T00:02:08.706Z,33.50
2018-05-18T00:04:36.983Z,33.70
2018-05-18T00:07:05.621Z,33.50
2018-05-18T00:09:33.892Z,33.50
2018-05-18T00:12:02.174Z,33.50
2018-05-18T00:14:30.484Z,33.50
2018-05-18T00:16:59.152Z,33.70
2018-05-18T00:19:27.436Z,33.70
2018-05-18T00:21:56.205Z,33.70
2018-05-18T00:24:24.546Z,33.70
2018-05-18T00:26:52.818Z,33.80
2018-05-18T00:29:21.436Z,33.70
2018-05-18T00:31:50.019Z,33.80
2018-05-18T00:34:18.305Z,33.80
2018-05-18T00:36:46.613Z,33.70
2018-05-18T00:39:14.928Z,33.70
2018-05-18T00:41:43.208Z,33.70
2018-05-18T00:44:11.557Z,33.50
2018-05-18T00:46:39.835Z,33.70
2018-05-18T00:49:08.116Z,33.70
2018-05-18T00:51:36.421Z,33.70
2018-05-18T00:54:04.697Z,33.70
2018-05-18T00:56:32.994Z,33.70
2018-05-18T00:59:01.368Z,33.70
2018-05-18T01:01:29.677Z,34.00
2018-05-18T01:03:57.959Z,34.00
2018-05-18T01:06:26.502Z,34.00
2018-05-18T01:08:54.830Z,34.00
2018-05-18T01:11:23.548Z,33.80
2018-05-18T01:13:52.145Z,33.80
2018-05-18T01:16:20.430Z,33.80
2018-05-18T01:18:49.104Z,33.70
2018-05-18T01:21:17.385Z,33.70
2018-05-18T01:23:45.650Z,33.70
2018-05-18T01:26:13.921Z,33.70
2018-05-18T01:28:42.204Z,33.80
2018-05-18T01:31:10.493Z,33.70
2018-05-18T01:33:38.783Z,33.70
2018-05-18T01:36:07.469Z,33.70
2018-05-18T01:38:35.766Z,33.70
2018-05-18T01:41:04.046Z,33.70
2018-05-18T01:43:32.321Z,33.50
2018-05-18T01:46:00.621Z,33.50
2018-05-18T01:48:28.924Z,33.50
2018-05-18T01:50:57.283Z,33.50
2018-05-18T01:53:25.547Z,33.50
2018-05-18T01:55:53.822Z,33.50
2018-05-18T01:58:22.144Z,33.70
2018-05-18T02:00:50.427Z,33.70
2018-05-18T02:03:19.004Z,33.50
2018-05-18T02:05:47.330Z,33.50
2018-05-18T02:08:15.598Z,33.50
2018-05-18T02:10:43.878Z,33.50
2018-05-18T02:13:12.193Z,33.50
2018-05-18T02:15:40.487Z,33.50
2018-05-18T02:18:09.171Z,33.70
2018-05-18T02:20:37.472Z,33.70
2018-05-18T02:23:05.779Z,33.50
2018-05-18T02:25:34.060Z,33.50
2018-05-18T02:28:02.348Z,33.50
2018-05-18T02:30:30.887Z,33.50
2018-05-18T02:32:59.439Z,33.50
2018-05-18T02:35:27.756Z,33.50
2018-05-18T02:37:56.041Z,33.50
2018-05-18T02:40:24.331Z,33.50
2018-05-18T02:42:52.656Z,33.50
2018-05-18T02:45:20.935Z,33.50
2018-05-18T02:47:49.226Z,33.50
2018-05-18T02:50:17.926Z,33.50
2018-05-18T02:52:46.201Z,33.50
2018-05-18T02:55:14.505Z,33.50
2018-05-18T02:57:42.818Z,33.50
2018-05-18T03:00:11.089Z,33.70
2018-05-18T03:02:39.368Z,33.80
2018-05-18T03:05:07.689Z,33.80
2018-05-18T03:07:35.998Z,33.80
2018-05-18T03:10:04.570Z,33.80
2018-05-18T03:12:33.001Z,33.80
2018-05-18T03:15:01.968Z,33.80
2018-05-18T03:17:30.255Z,33.80
2018-05-18T03:19:58.554Z,33.40
2018-05-18T03:22:27.242Z,32.20
2018-05-18T03:24:55.909Z,32.00
2018-05-18T03:27:24.254Z,32.20
2018-05-18T03:29:52.550Z,32.20
2018-05-18T03:32:20.812Z,32.20
2018-05-18T03:34:49.410Z,32.20
2018-05-18T03:37:17.710Z,32.20
2018-05-18T03:39:46.361Z,32.20
2018-05-18T03:42:14.680Z,32.20
2018-05-18T03:44:43.344Z,32.20
2018-05-18T03:47:11.697Z,32.20
2018-05-18T03:49:39.968Z,32.30
2018-05-18T03:52:08.257Z,32.50
2018-05-18T03:54:36.529Z,32.50
2018-05-18T03:57:04.845Z,32.50
2018-05-18T03:59:33.519Z,32.50
2018-05-18T04:02:14.054Z,32.60
2018-05-18T04:04:54.628Z,32.60
2018-05-18T04:07:34.648Z,32.60
2018-05-18T04:10:02.931Z,32.50
2018-05-18T04:12:31.213Z,32.60
2018-05-18T04:14:59.509Z,32.60
2018-05-18T04:17:27.793Z,32.60
2018-05-18T04:19:56.512Z,32.80
2018-05-18T04:22:25.209Z,32.80
2018-05-18T04:24:53.476Z,32.80
2018-05-18T04:27:21.761Z,32.60
2018-05-18T04:29:50.071Z,32.60
2018-05-18T04:32:18.334Z,32.60
2018-05-18T04:34:46.640Z,32.60
2018-05-18T04:37:14.933Z,32.60
2018-05-18T04:39:43.204Z,32.60
2018-05-18T04:42:11.469Z,32.60
2018-05-18T04:44:39.788Z,32.50
2018-05-18T04:47:08.274Z,32.50
2018-05-18T04:49:36.548Z,32.60
2018-05-18T04:52:04.882Z,32.60
2018-05-18T04:54:33.148Z,32.60
2018-05-18T04:57:01.446Z,32.60
2018-05-18T04:59:29.758Z,32.60
2018-05-18T05:01:58.052Z,32.60
2018-05-18T05:04:26.324Z,32.60
2018-05-18T05:06:54.645Z,32.60
2018-05-18T05:09:22.918Z,32.50
2018-05-18T05:11:51.205Z,32.50
2018-05-18T05:14:19.555Z,32.60
2018-05-18T05:16:47.826Z,32.50
2018-05-18T05:19:16.094Z,32.50
2018-05-18T05:21:44.388Z,32.50
2018-05-18T05:24:12.704Z,32.30
2018-05-18T05:26:41.668Z,32.30
2018-05-18T05:29:09.994Z,32.30
2018-05-18T05:31:38.282Z,32.30
2018-05-18T05:34:06.551Z,32.30
2018-05-18T05:36:35.220Z,32.30
2018-05-18T05:39:03.479Z,32.30
2018-05-18T05:41:32.451Z,32.20
2018-05-18T05:44:01.036Z,32.20
2018-05-18T05:46:29.330Z,32.20
2018-05-18T05:48:58.008Z,32.20
2018-05-18T05:51:26.336Z,32.20
2018-05-18T05:53:54.606Z,32.20
2018-05-18T05:56:23.132Z,32.20
2018-05-18T05:58:51.495Z,32.20
2018-05-18T06:01:19.765Z,32.20
2018-05-18T06:03:48.366Z,32.20
2018-05-18T06:06:17.063Z,32.00
2018-05-18T06:08:45.343Z,31.90
2018-05-18T06:11:14.341Z,31.90
2018-05-18T06:13:43.041Z,31.90
2018-05-18T06:16:11.358Z,31.90
2018-05-18T06:18:39.627Z,31.90
2018-05-18T06:21:07.944Z,31.70
2018-05-18T06:23:36.221Z,31.70
2018-05-18T06:26:04.576Z,31.60
2018-05-18T06:28:32.861Z,31.60
2018-05-18T06:31:01.129Z,31.60
2018-05-18T06:33:29.608Z,31.40
2018-05-18T06:35:57.912Z,31.40
2018-05-18T06:38:26.182Z,31.40
2018-05-18T06:40:54.457Z,31.30
2018-05-18T06:43:22.742Z,31.30
2018-05-18T06:45:51.043Z,31.10
2018-05-18T06:48:19.705Z,36.50
2018-05-18T06:50:48.022Z,36.50
2018-05-18T06:53:16.297Z,36.60
2018-05-18T06:55:44.628Z,36.20
2018-05-18T06:58:13.538Z,35.60
2018-05-18T07:00:42.374Z,34.40
2018-05-18T07:03:11.792Z,34.40
2018-05-18T07:05:40.100Z,33.80
2018-05-18T07:08:08.473Z,33.20
2018-05-18T07:10:36.876Z,32.80
2018-05-18T07:13:05.111Z,31.40
2018-05-18T07:15:33.385Z,31.90
2018-05-18T07:18:01.658Z,31.90
2018-05-18T07:20:30.031Z,31.70
2018-05-18T07:22:58.721Z,31.40
2018-05-18T07:25:27.333Z,30.80
2018-05-18T07:27:56.200Z,30.70
2018-05-18T07:30:24.480Z,30.70
2018-05-18T07:32:52.776Z,30.60
2018-05-18T07:35:21.749Z,30.10
2018-05-18T07:37:50.930Z,30.10
2018-05-18T07:40:19.206Z,29.90
2018-05-18T07:42:47.490Z,29.70
2018-05-18T07:45:15.769Z,29.70
2018-05-18T07:47:44.137Z,29.60
2018-05-18T07:50:12.472Z,29.50
2018-05-18T07:52:41.045Z,29.50
2018-05-18T07:55:09.341Z,29.40
2018-05-18T07:57:37.661Z,29.30
2018-05-18T08:00:06.032Z,29.30
2018-05-18T08:02:34.630Z,29.30
2018-05-18T08:05:02.969Z,29.20
2018-05-18T08:07:31.258Z,29.20
2018-05-18T08:09:59.545Z,29.10
2018-05-18T08:12:27.832Z,29.00
2018-05-18T08:14:56.424Z,29.00
2018-05-18T08:17:24.706Z,28.70
2018-05-18T08:19:52.998Z,28.60
2018-05-18T08:22:21.670Z,28.50
2018-05-18T08:24:49.974Z,28.50
2018-05-18T08:27:23.215Z,28.50
2018-05-18T08:29:51.934Z,28.40
2018-05-18T08:32:20.598Z,28.50
2018-05-18T08:34:48.903Z,28.50
2018-05-18T08:37:17.588Z,28.40
2018-05-18T08:39:46.326Z,28.40
2018-05-18T08:42:14.678Z,28.40
2018-05-18T08:44:42.982Z,28.40
2018-05-18T08:47:11.258Z,28.40
2018-05-18T08:49:39.566Z,28.40
2018-05-18T08:52:07.852Z,28.30
2018-05-18T08:54:36.526Z,28.20
2018-05-18T08:57:04.837Z,28.30
2018-05-18T08:59:33.126Z,28.20
2018-05-18T09:02:01.400Z,28.20
2018-05-18T09:04:29.713Z,28.10
2018-05-18T09:06:57.998Z,28.10
2018-05-18T09:09:26.727Z,28.00
2018-05-18T09:11:55.284Z,28.00
2018-05-18T09:14:23.573Z,28.10
2018-05-18T09:16:52.241Z,28.00
2018-05-18T09:19:20.968Z,28.00
2018-05-18T09:21:49.254Z,28.00
2018-05-18T09:24:17.532Z,28.00
2018-05-18T09:26:45.930Z,28.00
2018-05-18T09:29:14.228Z,28.00
2018-05-18T09:31:42.529Z,28.00
2018-05-18T09:34:11.298Z,27.90
2018-05-18T09:36:39.868Z,28.00
2018-05-18T09:39:08.162Z,28.00
2018-05-18T09:41:36.463Z,28.00
2018-05-18T09:44:04.746Z,27.90
2018-05-18T09:46:33.038Z,27.90
2018-05-18T09:49:01.341Z,28.00
2018-05-18T09:51:29.619Z,27.90
2018-05-18T09:53:58.243Z,27.90
2018-05-18T09:56:27.205Z,27.90
2018-05-18T09:58:55.485Z,27.90
2018-05-18T10:01:23.766Z,27.90
2018-05-18T10:03:52.343Z,27.90
2018-05-18T10:06:20.625Z,27.90
2018-05-18T10:08:49.390Z,27.90
2018-05-18T10:11:17.797Z,27.90
2018-05-18T10:13:46.077Z,27.90
2018-05-18T10:16:14.525Z,27.80
2018-05-18T10:18:42.814Z,27.90
2018-05-18T10:21:11.123Z,27.80
2018-05-18T10:23:39.826Z,27.80
2018-05-18T10:26:08.243Z,27.80
2018-05-18T10:28:36.515Z,27.80
2018-05-18T10:31:04.798Z,27.70
2018-05-18T10:33:33.136Z,27.70
2018-05-18T10:36:01.669Z,27.70
2018-05-18T10:38:30.357Z,27.70
2018-05-18T10:40:58.707Z,27.70
2018-05-18T10:43:26.994Z,27.70
2018-05-18T10:45:55.319Z,27.70
2018-05-18T10:48:24.447Z,27.60
2018-05-18T10:50:52.730Z,27.60
2018-05-18T10:53:21.049Z,27.60
2018-05-18T10:55:49.912Z,27.60
2018-05-18T10:58:18.206Z,27.60
2018-05-18T11:00:46.485Z,27.60
2018-05-18T11:03:14.777Z,27.60
2018-05-18T11:05:43.446Z,27.60
2018-05-18T11:08:12.029Z,27.60
2018-05-18T11:10:40.353Z,27.60
2018-05-18T11:13:08.662Z,27.40
2018-05-18T11:15:37.263Z,27.40
2018-05-18T11:18:05.577Z,27.40
2018-05-18T11:20:34.253Z,27.30
2018-05-18T11:23:02.543Z,27.30
2018-05-18T11:25:30.854Z,27.20
2018-05-18T11:27:59.126Z,27.10
2018-05-18T11:30:27.631Z,27.20
2018-05-18T11:32:56.246Z,27.10
2018-05-18T11:35:24.956Z,27.20
2018-05-18T11:37:53.267Z,27.20
2018-05-18T11:40:21.579Z,27.10
2018-05-18T11:42:49.903Z,27.10
2018-05-18T11:45:18.200Z,26.90
2018-05-18T11:47:46.480Z,26.80
2018-05-18T11:50:14.756Z,26.80
2018-05-18T11:52:43.041Z,26.80
2018-05-18T11:55:11.386Z,26.70
2018-05-18T11:57:39.684Z,26.60
2018-05-18T12:00:08.283Z,26.60
2018-05-18T12:02:37.112Z,26.80
2018-05-18T12:05:05.393Z,26.80
2018-05-18T12:07:33.676Z,26.90
2018-05-18T12:10:02.409Z,26.90
2018-05-18T12:12:30.717Z,27.00
2018-05-18T12:14:59.399Z,27.10
2018-05-18T12:17:28.206Z,27.20
2018-05-18T12:19:56.478Z,27.20
2018-05-18T12:22:24.771Z,27.20
2018-05-18T12:24:53.710Z,27.20
2018-05-18T12:27:22.411Z,27.30
2018-05-18T12:29:51.102Z,27.40
2018-05-18T12:32:19.422Z,27.40
2018-05-18T12:34:47.725Z,27.30
2018-05-18T12:37:16.026Z,27.30
2018-05-18T12:39:44.396Z,27.40
2018-05-18T12:42:12.683Z,27.30
2018-05-18T12:44:41.360Z,27.40
2018-05-18T12:47:10.073Z,27.40
2018-05-18T12:49:38.361Z,27.40
2018-05-18T12:52:06.650Z,27.50
2018-05-18T12:54:35.272Z,27.40
2018-05-18T12:57:03.719Z,27.40
2018-05-18T12:59:32.165Z,27.40
2018-05-18T13:02:00.901Z,27.60
2018-05-18T13:04:29.280Z,27.60
2018-05-18T13:06:57.606Z,27.60
2018-05-18T13:09:26.274Z,27.60
2018-05-18T13:11:54.586Z,27.60
2018-05-18T13:14:22.879Z,27.70
2018-05-18T13:16:51.169Z,27.70
2018-05-18T13:19:19.856Z,27.60
2018-05-18T13:21:48.153Z,27.80
2018-05-18T13:24:16.444Z,27.80
2018-05-18T13:26:45.117Z,27.80
2018-05-18T13:29:13.472Z,27.80
2018-05-18T13:31:41.785Z,27.80
2018-05-18T13:34:10.454Z,28.00
2018-05-18T13:36:39.441Z,28.10
2018-05-18T13:39:08.029Z,28.10
2018-05-18T13:41:36.305Z,28.10
2018-05-18T13:44:04.767Z,28.10
2018-05-18T13:46:33.164Z,28.10
2018-05-18T13:49:01.441Z,28.20
2018-05-18T13:51:29.751Z,28.20
2018-05-18T13:53:58.430Z,28.20
2018-05-18T13:56:27.113Z,28.20
2018-05-18T13:58:55.825Z,28.30
2018-05-18T14:01:24.105Z,28.30
2018-05-18T14:03:52.636Z,28.40
2018-05-18T14:06:20.996Z,28.40
2018-05-18T14:08:49.371Z,28.40
2018-05-18T14:11:17.645Z,28.40
2018-05-18T14:13:46.029Z,28.40
2018-05-18T14:16:14.330Z,28.50
2018-05-18T14:18:42.609Z,28.50
2018-05-18T14:21:10.958Z,28.50
2018-05-18T14:23:39.571Z,28.60
2018-05-18T14:26:08.532Z,28.60
2018-05-18T14:28:36.829Z,28.60
2018-05-18T14:31:05.114Z,28.70
2018-05-18T14:33:33.405Z,28.80
2018-05-18T14:36:01.745Z,28.80
2018-05-18T14:38:30.030Z,28.90
2018-05-18T14:40:58.318Z,28.90
2018-05-18T14:43:26.650Z,28.90
2018-05-18T14:45:55.391Z,29.10
2018-05-18T14:48:23.711Z,29.10
2018-05-18T14:50:52.032Z,29.10
2018-05-18T14:53:20.305Z,29.10
2018-05-18T14:55:48.582Z,29.30
2018-05-18T14:58:16.926Z,29.30
2018-05-18T15:00:45.202Z,29.40
2018-05-18T15:03:13.529Z,29.50
2018-05-18T15:05:41.887Z,29.50
2018-05-18T15:08:10.163Z,29.60
2018-05-18T15:10:38.451Z,29.60
2018-05-18T15:13:06.903Z,29.70
2018-05-18T15:15:35.185Z,29.80
2018-05-18T15:18:03.458Z,29.80
2018-05-18T15:20:31.830Z,29.80
2018-05-18T15:23:00.213Z,29.90
2018-05-18T15:25:28.486Z,29.90
2018-05-18T15:27:57.339Z,30.10
2018-05-18T15:30:25.656Z,30.10
2018-05-18T15:32:53.948Z,30.30
2018-05-18T15:35:22.260Z,30.30
2018-05-18T15:37:50.938Z,30.40
2018-05-18T15:40:19.680Z,30.40
2018-05-18T15:42:48.019Z,30.40
2018-05-18T15:45:16.326Z,30.60
2018-05-18T15:47:44.639Z,30.60
2018-05-18T15:50:13.003Z,30.60
2018-05-18T15:52:41.269Z,30.60
2018-05-18T15:55:09.546Z,30.70
2018-05-18T15:57:38.142Z,30.70
2018-05-18T16:00:06.850Z,30.70
2018-05-18T16:02:35.582Z,30.70
2018-05-18T16:05:03.914Z,30.70
2018-05-18T16:07:32.664Z,30.80
2018-05-18T16:10:00.950Z,30.70
2018-05-18T16:12:29.421Z,30.80
2018-05-18T16:14:57.690Z,30.80
2018-05-18T16:17:25.962Z,30.80
2018-05-18T16:19:54.267Z,31.00
2018-05-18T16:22:22.663Z,31.00
2018-05-18T16:24:51.333Z,31.10
2018-05-18T16:27:19.694Z,31.10
2018-05-18T16:29:47.999Z,31.10
2018-05-18T16:32:16.994Z,31.10
2018-05-18T16:34:45.723Z,31.40
2018-05-18T16:37:14.134Z,31.40
2018-05-18T16:39:42.453Z,31.40
2018-05-18T16:42:11.118Z,31.40
2018-05-18T16:44:39.809Z,31.60
2018-05-18T16:47:09.694Z,31.60
2018-05-18T16:49:38.426Z,31.60
2018-05-18T16:52:06.761Z,31.70
2018-05-18T16:54:35.075Z,31.70
2018-05-18T16:57:03.731Z,31.90
2018-05-18T16:59:32.433Z,32.00
2018-05-18T17:02:01.115Z,32.00
2018-05-18T17:04:29.463Z,32.00
2018-05-18T17:06:57.753Z,32.00
2018-05-18T17:09:26.054Z,32.20
2018-05-18T17:11:55.028Z,32.20
2018-05-18T17:14:23.605Z,32.20
2018-05-18T17:16:51.973Z,32.20
2018-05-18T17:19:20.262Z,32.20
2018-05-18T17:21:48.543Z,32.20
2018-05-18T17:24:16.862Z,32.30
2018-05-18T17:26:45.142Z,32.30
2018-05-18T17:29:13.444Z,32.30
2018-05-18T17:31:41.779Z,32.60
2018-05-18T17:34:10.074Z,32.80
2018-05-18T17:36:38.376Z,32.80
2018-05-18T17:39:06.787Z,32.80
2018-05-18T17:41:35.066Z,32.80
2018-05-18T17:44:03.351Z,32.80
2018-05-18T17:46:31.674Z,32.80
2018-05-18T17:49:00.139Z,32.80
2018-05-18T17:51:28.413Z,32.80
2018-05-18T17:53:56.688Z,32.80
2018-05-18T17:56:24.975Z,32.90
2018-05-18T17:58:53.300Z,32.90
2018-05-18T18:01:21.813Z,32.90
2018-05-18T18:03:50.103Z,33.10
2018-05-18T18:06:18.430Z,33.10
2018-05-18T18:08:46.944Z,33.20
2018-05-18T18:11:15.230Z,33.20
2018-05-18T18:13:43.530Z,33.20
2018-05-18T18:16:12.149Z,33.20
2018-05-18T18:18:41.393Z,33.20
2018-05-18T18:21:09.722Z,33.20
2018-05-18T18:23:38.007Z,33.20
2018-05-18T18:26:06.448Z,33.20
2018-05-18T18:28:34.799Z,33.20
2018-05-18T18:31:03.041Z,33.20
2018-05-18T18:33:31.410Z,33.40
2018-05-18T18:35:59.723Z,33.20
2018-05-18T18:38:28.396Z,33.40
2018-05-18T18:40:57.188Z,33.20
2018-05-18T18:43:25.879Z,33.40
2018-05-18T18:45:54.565Z,33.50
2018-05-18T18:48:23.245Z,34.20
2018-05-18T18:50:51.941Z,34.80
2018-05-18T18:53:20.627Z,35.30
2018-05-18T18:55:49.375Z,35.40
2018-05-18T18:58:18.094Z,36.00
2018-05-18T19:00:46.371Z,36.00
2018-05-18T19:03:15.335Z,36.00
2018-05-18T19:05:43.916Z,36.00
2018-05-18T19:08:12.246Z,36.50
2018-05-18T19:10:40.922Z,36.60
2018-05-18T19:13:09.202Z,36.60
2018-05-18T19:15:37.488Z,36.90
2018-05-18T19:18:05.940Z,37.20
2018-05-18T19:20:34.230Z,37.60
2018-05-18T19:23:02.509Z,37.80
2018-05-18T19:25:31.287Z,37.90
2018-05-18T19:27:59.717Z,37.90
2018-05-18T19:30:28.055Z,38.10
2018-05-18T19:32:56.337Z,38.40
2018-05-18T19:35:24.626Z,38.80
2018-05-18T19:37:52.967Z,39.30
2018-05-18T19:40:21.819Z,39.60
2018-05-18T19:42:50.131Z,39.60
2018-05-18T19:45:18.870Z,40.30
2018-05-18T19:47:47.171Z,40.30
2018-05-18T19:50:15.462Z,40.20
2018-05-18T19:52:43.754Z,40.50
2018-05-18T19:55:12.070Z,40.70
2018-05-18T19:57:40.415Z,40.90
2018-05-18T20:00:08.707Z,40.50
2018-05-18T20:02:36.987Z,40.50
2018-05-18T20:05:05.319Z,40.30
2018-05-18T20:07:33.588Z,40.50
2018-05-18T20:10:02.166Z,40.50
2018-05-18T20:12:30.901Z,41.30
2018-05-18T20:14:59.433Z,41.30
2018-05-18T20:17:28.150Z,41.80
2018-05-18T20:19:56.454Z,41.90
2018-05-18T20:22:24.887Z,42.10
2018-05-18T20:24:53.172Z,42.40
2018-05-18T20:27:22.151Z,42.70
2018-05-18T20:29:50.443Z,42.70
2018-05-18T20:32:19.124Z,42.70
2018-05-18T20:34:47.842Z,42.70
2018-05-18T20:37:16.121Z,42.70
2018-05-18T20:39:44.405Z,43.10
2018-05-18T20:42:12.706Z,43.40
2018-05-18T20:44:41.812Z,43.30
2018-05-18T20:47:10.169Z,43.40
2018-05-18T20:49:38.497Z,43.40
2018-05-18T20:52:06.942Z,43.00
2018-05-18T20:54:35.266Z,43.00
2018-05-18T20:57:03.596Z,42.70
2018-05-18T20:59:32.664Z,42.80
2018-05-18T21:02:01.082Z,42.80
2018-05-18T21:04:29.451Z,42.40
2018-05-18T21:06:57.783Z,42.80
2018-05-18T21:09:26.094Z,43.00
2018-05-18T21:11:54.410Z,42.70
2018-05-18T21:14:22.739Z,42.70
2018-05-18T21:16:51.065Z,42.70
2018-05-18T21:19:19.746Z,42.70
2018-05-18T21:21:48.058Z,42.70
2018-05-18T21:24:16.344Z,42.20
2018-05-18T21:26:44.688Z,42.20
2018-05-18T21:29:13.419Z,42.50
2018-05-18T21:31:41.710Z,42.50
2018-05-18T21:34:10.335Z,43.30
2018-05-18T21:36:39.118Z,43.90
2018-05-18T21:39:07.797Z,43.90
2018-05-18T21:41:36.473Z,44.00
2018-05-18T21:44:04.790Z,44.00
2018-05-18T21:46:33.120Z,44.00
2018-05-18T21:49:01.407Z,43.70
2018-05-18T21:51:29.695Z,44.30
2018-05-18T21:53:58.394Z,44.10
2018-05-18T21:56:26.764Z,44.10
2018-05-18T21:58:55.467Z,43.90
2018-05-18T22:01:24.657Z,43.90
2018-05-18T22:03:53.016Z,44.00
2018-05-18T22:06:21.736Z,44.30
2018-05-18T22:08:50.066Z,44.30
2018-05-18T22:11:18.449Z,44.30
2018-05-18T22:13:46.893Z,44.60
2018-05-18T22:16:15.696Z,44.00
2018-05-18T22:18:44.417Z,43.10
2018-05-18T22:21:12.781Z,43.10
2018-05-18T22:23:41.106Z,42.80
2018-05-18T22:26:09.381Z,42.50
2018-05-18T22:28:37.666Z,42.20
2018-05-18T22:31:05.985Z,42.20
2018-05-18T22:33:34.344Z,42.20
2018-05-18T22:36:02.631Z,42.10
2018-05-18T22:38:31.514Z,42.40
2018-05-18T22:40:59.889Z,42.40
2018-05-18T22:43:28.191Z,42.50
2018-05-18T22:45:56.904Z,42.80
2018-05-18T22:48:25.742Z,43.60
2018-05-18T22:50:54.269Z,43.60
2018-05-18T22:53:23.369Z,43.70
2018-05-18T22:55:51.698Z,43.60
2018-05-18T22:58:20.013Z,43.90
2018-05-18T23:00:48.397Z,43.70
2018-05-18T23:03:16.737Z,43.90
2018-05-18T23:05:45.057Z,43.90
2018-05-18T23:08:13.385Z,43.90
2018-05-18T23:10:41.762Z,48.30
2018-05-18T23:13:10.039Z,52.10
2018-05-18T23:15:38.343Z,50.40
2018-05-18T23:18:06.624Z,50.50
2018-05-18T23:20:34.947Z,49.30
2018-05-18T23:23:03.570Z,49.80
2018-05-18T23:25:31.930Z,48.90
2018-05-18T23:28:00.238Z,47.30
2018-05-18T23:30:28.519Z,47.10
2018-05-18T23:32:57.234Z,46.40
2018-05-18T23:35:25.530Z,46.40
2018-05-18T23:37:53.821Z,46.70
2018-05-18T23:40:22.142Z,46.70
2018-05-18T23:42:50.477Z,46.10
2018-05-18T23:45:18.761Z,45.90
2018-05-18T23:47:47.352Z,46.10
2018-05-18T23:50:15.645Z,46.10
2018-05-18T23:52:44.327Z,45.50
2018-05-18T23:55:12.625Z,45.50
2018-05-18T23:57:41.293Z,45.60
